LOG96LP EGPH-EGPO

Flight info

Callsign LOG96LP
Flight time 0h 42m
Altitude 24000
Route GRICE DCT STN
Aircraft E145/M-SDFGIRW/S

Departure

Time 2026-04-15 07:38
Airport Edinburgh Airport (EGPH)

Arrival

Time 2026-04-15 08:21
Airport Stornoway Airport (EGPO)
Time Latitude Longitude Altitude Speed Heading
2026-04-15 07:06 55.94848 -3.35857 141 ft 0 kts 206°
2026-04-15 07:28 55.94847 -3.35857 141 ft 0 kts 206°
2026-04-15 07:28 55.94844 -3.35860 141 ft 0 kts 206°
2026-04-15 07:28 55.94848 -3.35857 141 ft 2 kts 206°
2026-04-15 07:29 55.94861 -3.35845 141 ft 2 kts 206°
2026-04-15 07:29 55.94875 -3.35833 141 ft 2 kts 210°
2026-04-15 07:29 55.94886 -3.35817 141 ft 2 kts 232°
2026-04-15 07:29 55.94893 -3.35794 141 ft 2 kts 251°
2026-04-15 07:30 55.94896 -3.35768 141 ft 2 kts 270°
2026-04-15 07:30 55.94894 -3.35742 141 ft 2 kts 289°
2026-04-15 07:30 55.94891 -3.35729 141 ft 0 kts 297°
2026-04-15 07:31 55.94891 -3.35730 141 ft 0 kts 297°
2026-04-15 07:31 55.94892 -3.35732 141 ft 0 kts 297°
2026-04-15 07:32 55.94894 -3.35737 141 ft 1 kts 297°
2026-04-15 07:32 55.94902 -3.35766 141 ft 3 kts 299°
2026-04-15 07:32 55.94918 -3.35814 141 ft 5 kts 304°
2026-04-15 07:32 55.94954 -3.35860 141 ft 7 kts 346°
2026-04-15 07:33 55.95009 -3.35837 141 ft 9 kts 28°
2026-04-15 07:33 55.95075 -3.35784 141 ft 11 kts 358°
2026-04-15 07:33 55.95125 -3.35892 141 ft 12 kts 304°
2026-04-15 07:33 55.95202 -3.35981 141 ft 13 kts 346°
2026-04-15 07:34 55.95271 -3.35874 141 ft 15 kts 59°
2026-04-15 07:34 55.95328 -3.35706 141 ft 16 kts 59°
2026-04-15 07:34 55.95391 -3.35520 141 ft 16 kts 59°
2026-04-15 07:34 55.95432 -3.35414 141 ft 6 kts 32°
2026-04-15 07:35 55.95479 -3.35423 141 ft 7 kts 329°
2026-04-15 07:35 55.95489 -3.35434 141 ft 0 kts 327°
2026-04-15 07:36 55.95498 -3.35444 141 ft 2 kts 327°
2026-04-15 07:36 55.95521 -3.35472 141 ft 5 kts 327°
2026-04-15 07:36 55.95557 -3.35518 141 ft 7 kts 312°
2026-04-15 07:37 55.95557 -3.35597 141 ft 0 kts 238°
2026-04-15 07:37 55.95556 -3.35599 141 ft 0 kts 237°
2026-04-15 07:37 55.95554 -3.35604 141 ft 0 kts 236°
2026-04-15 07:37 55.95461 -3.35881 141 ft 63 kts 239°
2026-04-15 07:38 55.95114 -3.36903 141 ft 126 kts 238°
2026-04-15 07:38 55.94633 -3.38404 370 ft 149 kts 240°
2026-04-15 07:38 55.94276 -3.40220 888 ft 162 kts 248°
2026-04-15 07:38 55.93999 -3.42274 1438 ft 180 kts 256°
2026-04-15 07:39 55.93660 -3.44378 2140 ft 181 kts 230°
2026-04-15 07:39 55.92698 -3.45661 2945 ft 174 kts 206°
2026-04-15 07:39 55.91766 -3.46944 3780 ft 173 kts 228°
2026-04-15 07:39 55.91098 -3.48646 4548 ft 170 kts 232°
2026-04-15 07:40 55.90467 -3.50390 5284 ft 167 kts 230°
2026-04-15 07:40 55.90045 -3.52277 5956 ft 179 kts 263°
2026-04-15 07:40 55.90545 -3.54403 6597 ft 203 kts 308°
2026-04-15 07:40 55.91854 -3.55595 6966 ft 235 kts 346°
2026-04-15 07:41 55.93581 -3.55240 7054 ft 269 kts 24°
2026-04-15 07:41 55.95253 -3.53434 7168 ft 295 kts 36°
2026-04-15 07:41 55.97015 -3.51420 7647 ft 304 kts 26°
2026-04-15 07:41 55.99033 -3.50574 8341 ft 301 kts 358°
2026-04-15 07:42 56.01044 -3.51247 8968 ft 299 kts 342°
2026-04-15 07:42 56.03087 -3.52009 9559 ft 304 kts 347°
2026-04-15 07:42 56.05154 -3.52819 10140 ft 306 kts 337°
2026-04-15 07:42 56.06919 -3.54878 10544 ft 304 kts 308°
2026-04-15 07:43 56.07958 -3.58058 10978 ft 302 kts 286°
2026-04-15 07:43 56.08925 -3.61494 11333 ft 317 kts 296°
2026-04-15 07:43 56.10222 -3.64810 11600 ft 335 kts 310°
2026-04-15 07:43 56.12246 -3.67134 11979 ft 351 kts 337°
2026-04-15 07:44 56.14677 -3.67771 12490 ft 357 kts
2026-04-15 07:44 56.17151 -3.67248 12931 ft 360 kts 359°
2026-04-15 07:44 56.19576 -3.68051 13382 ft 358 kts 335°
2026-04-15 07:44 56.21946 -3.69450 13800 ft 364 kts 348°
2026-04-15 07:45 56.24414 -3.70206 14260 ft 366 kts 348°
2026-04-15 07:45 56.26943 -3.71069 14681 ft 367 kts 342°
2026-04-15 07:45 56.29262 -3.72944 15004 ft 369 kts 330°
2026-04-15 07:45 56.31480 -3.75127 15452 ft 367 kts 320°
2026-04-15 07:46 56.33530 -3.77855 15830 ft 370 kts 319°
2026-04-15 07:46 56.35608 -3.80652 16208 ft 373 kts 319°
2026-04-15 07:46 56.37661 -3.83426 16659 ft 374 kts 319°
2026-04-15 07:46 56.39764 -3.86272 17025 ft 377 kts 319°
2026-04-15 07:47 56.41839 -3.89084 17424 ft 379 kts 319°
2026-04-15 07:47 56.43950 -3.91950 17865 ft 380 kts 319°
2026-04-15 07:47 56.46046 -3.94799 18312 ft 380 kts 319°
2026-04-15 07:47 56.48159 -3.97678 18726 ft 381 kts 319°
2026-04-15 07:48 56.50274 -4.00561 19211 ft 380 kts 319°
2026-04-15 07:48 56.52369 -4.03423 19666 ft 379 kts 319°
2026-04-15 07:48 56.54457 -4.06276 20168 ft 377 kts 319°
2026-04-15 07:48 56.56531 -4.09118 20590 ft 379 kts 318°
2026-04-15 07:49 56.58635 -4.12001 21105 ft 378 kts 318°
2026-04-15 07:49 56.60711 -4.14855 21593 ft 377 kts 319°
2026-04-15 07:49 56.62780 -4.17700 22137 ft 374 kts 319°
2026-04-15 07:49 56.64844 -4.20542 22657 ft 373 kts 319°
2026-04-15 07:50 56.66911 -4.23393 23067 ft 375 kts 319°
2026-04-15 07:50 56.68975 -4.26243 23581 ft 373 kts 319°
2026-04-15 07:50 56.71046 -4.29111 23698 ft 384 kts 319°
2026-04-15 07:50 56.73204 -4.32099 23698 ft 395 kts 320°
2026-04-15 07:51 56.75412 -4.35162 23690 ft 401 kts 319°
2026-04-15 07:51 56.77615 -4.38221 23686 ft 403 kts 319°
2026-04-15 07:51 56.79837 -4.41312 23691 ft 405 kts 319°
2026-04-15 07:51 56.82089 -4.44451 23678 ft 407 kts 320°
2026-04-15 07:52 56.84329 -4.47576 23684 ft 409 kts 320°
2026-04-15 07:52 56.86605 -4.50756 23680 ft 411 kts 319°
2026-04-15 07:52 56.88861 -4.53917 23677 ft 412 kts 319°
2026-04-15 07:52 56.91142 -4.57114 23677 ft 413 kts 320°
2026-04-15 07:53 56.93395 -4.60278 23669 ft 414 kts 319°
2026-04-15 07:53 56.95673 -4.63483 23672 ft 415 kts 319°
2026-04-15 07:53 56.97959 -4.66702 23675 ft 416 kts 318°
2026-04-15 07:53 57.00242 -4.69925 23671 ft 417 kts 319°
2026-04-15 07:54 57.02558 -4.73197 23667 ft 418 kts 319°
2026-04-15 07:54 57.04843 -4.76434 23678 ft 418 kts 319°
2026-04-15 07:54 57.07151 -4.79705 23667 ft 419 kts 319°
2026-04-15 07:54 57.09459 -4.82983 23665 ft 420 kts 319°
2026-04-15 07:55 57.11776 -4.86280 23527 ft 422 kts 319°
2026-04-15 07:55 57.14061 -4.89533 23159 ft 408 kts 319°
2026-04-15 07:55 57.18391 -4.95715 22287 ft 386 kts 319°
2026-04-15 07:56 57.20499 -4.98734 21849 ft 377 kts 318°
2026-04-15 07:56 57.22520 -5.01630 21414 ft 369 kts 318°
2026-04-15 07:56 57.24532 -5.04518 20979 ft 362 kts 318°
2026-04-15 07:56 57.26483 -5.07323 20544 ft 355 kts 317°
2026-04-15 07:57 57.28399 -5.10081 20117 ft 350 kts 317°
2026-04-15 07:57 57.30319 -5.12850 19678 ft 345 kts 317°
2026-04-15 07:57 57.32175 -5.15528 19257 ft 341 kts 317°
2026-04-15 07:57 57.34029 -5.18208 18822 ft 337 kts 317°
2026-04-15 07:58 57.35876 -5.20881 18393 ft 334 kts 317°
2026-04-15 07:58 57.37682 -5.23498 17974 ft 330 kts 317°
2026-04-15 07:58 57.39468 -5.26090 17559 ft 328 kts 317°
2026-04-15 07:58 57.41244 -5.28671 17098 ft 326 kts 316°
2026-04-15 07:59 57.43032 -5.31271 16601 ft 326 kts 317°
2026-04-15 07:59 57.44811 -5.33865 16094 ft 329 kts 317°
2026-04-15 07:59 57.46626 -5.36515 15612 ft 342 kts 317°
2026-04-15 07:59 57.48544 -5.39316 15120 ft 354 kts 318°
2026-04-15 08:00 57.50486 -5.42154 14649 ft 363 kts 318°
2026-04-15 08:00 57.52474 -5.45064 14167 ft 370 kts 318°
2026-04-15 08:00 57.54516 -5.48058 13672 ft 376 kts 318°
2026-04-15 08:00 57.56559 -5.51057 13188 ft 381 kts 318°
2026-04-15 08:01 57.58604 -5.54062 12693 ft 370 kts 318°
2026-04-15 08:01 57.60609 -5.57014 12193 ft 361 kts 318°
2026-04-15 08:01 57.62535 -5.59855 11696 ft 353 kts 317°
2026-04-15 08:01 57.64443 -5.62673 11209 ft 346 kts 317°
2026-04-15 08:02 57.66306 -5.65429 10776 ft 338 kts 316°
2026-04-15 08:02 57.68118 -5.68112 10399 ft 330 kts 316°
2026-04-15 08:02 57.69883 -5.70728 10065 ft 321 kts 316°
2026-04-15 08:02 57.71594 -5.73269 9771 ft 312 kts 316°
2026-04-15 08:03 57.73264 -5.75751 9508 ft 303 kts 316°
2026-04-15 08:03 57.74877 -5.78151 9239 ft 292 kts 315°
2026-04-15 08:03 57.76444 -5.80486 8992 ft 280 kts 315°
2026-04-15 08:03 57.77954 -5.82740 8746 ft 275 kts 315°
2026-04-15 08:04 57.79303 -5.85144 8497 ft 262 kts 300°
2026-04-15 08:04 57.80387 -5.87819 8254 ft 258 kts 299°
2026-04-15 08:04 57.81459 -5.90450 8004 ft 255 kts 300°
2026-04-15 08:04 57.82547 -5.93145 7594 ft 258 kts 300°
2026-04-15 08:05 57.83623 -5.95803 7351 ft 255 kts 300°
2026-04-15 08:05 57.84794 -5.98277 7095 ft 260 kts 319°
2026-04-15 08:05 57.86461 -5.99481 6889 ft 263 kts 354°
2026-04-15 08:05 57.88289 -5.99628 6661 ft 260 kts 358°
2026-04-15 08:06 57.90073 -5.99735 6423 ft 258 kts 358°
2026-04-15 08:06 57.91851 -5.99854 6186 ft 256 kts 358°
2026-04-15 08:06 57.93624 -5.99968 5916 ft 254 kts 358°
2026-04-15 08:06 57.95389 -6.00079 5679 ft 253 kts 356°
2026-04-15 08:07 57.97147 -6.00204 5430 ft 252 kts 358°
2026-04-15 08:07 57.98869 -6.00339 5197 ft 251 kts 357°
2026-04-15 08:07 58.00604 -6.00485 4953 ft 250 kts 357°
2026-04-15 08:07 58.02344 -6.00640 4705 ft 251 kts 358°
2026-04-15 08:08 58.04151 -6.00803 4479 ft 267 kts 357°
2026-04-15 08:08 58.06033 -6.01047 4246 ft 279 kts 354°
2026-04-15 08:08 58.08004 -6.01399 4011 ft 290 kts 354°
2026-04-15 08:08 58.09996 -6.01774 3770 ft 289 kts 354°
2026-04-15 08:09 58.11990 -6.02143 3504 ft 284 kts 354°
2026-04-15 08:09 58.13930 -6.02507 3225 ft 278 kts 354°
2026-04-15 08:09 58.15837 -6.02885 2962 ft 273 kts 354°
2026-04-15 08:09 58.17698 -6.03270 2700 ft 268 kts 355°
2026-04-15 08:10 58.19529 -6.03677 2448 ft 264 kts 355°
2026-04-15 08:10 58.21340 -6.04104 2190 ft 260 kts 354°
2026-04-15 08:10 58.23119 -6.04538 1935 ft 256 kts 354°
2026-04-15 08:10 58.24866 -6.04969 1679 ft 253 kts 354°
2026-04-15 08:11 58.26571 -6.05391 1598 ft 242 kts 354°
2026-04-15 08:11 58.28181 -6.05787 1590 ft 229 kts 354°
2026-04-15 08:11 58.29735 -6.06179 1644 ft 222 kts 354°
2026-04-15 08:11 58.31275 -6.06570 1599 ft 222 kts 354°
2026-04-15 08:12 58.32785 -6.06965 1590 ft 219 kts 354°
2026-04-15 08:12 58.34295 -6.07359 1597 ft 216 kts 354°
2026-04-15 08:12 58.35762 -6.07748 1597 ft 215 kts 354°
2026-04-15 08:12 58.37231 -6.08143 1598 ft 213 kts 354°
2026-04-15 08:13 58.38707 -6.08540 1597 ft 212 kts 354°
2026-04-15 08:13 58.40152 -6.09004 1587 ft 211 kts 343°
2026-04-15 08:13 58.41286 -6.10620 1600 ft 204 kts 298°
2026-04-15 08:13 58.41664 -6.13126 1617 ft 193 kts 270°
2026-04-15 08:14 58.41812 -6.15673 1603 ft 194 kts 270°
2026-04-15 08:14 58.41960 -6.18236 1630 ft 192 kts 270°
2026-04-15 08:14 58.42107 -6.20687 1598 ft 182 kts 270°
2026-04-15 08:14 58.42251 -6.23047 1592 ft 176 kts 270°
2026-04-15 08:15 58.42394 -6.25337 1588 ft 172 kts 270°
2026-04-15 08:15 58.42506 -6.27580 1585 ft 168 kts 261°
2026-04-15 08:15 58.42106 -6.29484 1602 ft 150 kts 221°
2026-04-15 08:15 58.41357 -6.30863 1594 ft 150 kts 214°
2026-04-15 08:16 58.40559 -6.32177 1590 ft 153 kts 213°
2026-04-15 08:16 58.39736 -6.33488 1587 ft 156 kts 210°
2026-04-15 08:16 58.38845 -6.34699 1593 ft 157 kts 209°
2026-04-15 08:16 58.37893 -6.35605 1572 ft 152 kts 183°
2026-04-15 08:17 58.36856 -6.35553 1589 ft 151 kts 171°
2026-04-15 08:17 58.35788 -6.35506 1593 ft 153 kts 176°
2026-04-15 08:17 58.34713 -6.35509 1607 ft 156 kts 176°
2026-04-15 08:17 58.33631 -6.35510 1588 ft 154 kts 177°
2026-04-15 08:18 58.32596 -6.35513 1577 ft 147 kts 176°
2026-04-15 08:18 58.31603 -6.35510 1552 ft 135 kts 174°
2026-04-15 08:18 58.30675 -6.35349 1465 ft 136 kts 170°
2026-04-15 08:18 58.29750 -6.35082 1449 ft 133 kts 168°
2026-04-15 08:19 58.28830 -6.34828 1378 ft 136 kts 168°
2026-04-15 08:19 58.27866 -6.34506 1127 ft 146 kts 164°
2026-04-15 08:19 58.26892 -6.34104 886 ft 139 kts 169°
2026-04-15 08:19 58.25947 -6.33971 663 ft 132 kts 174°
2026-04-15 08:20 58.25075 -6.33816 478 ft 125 kts 171°
2026-04-15 08:20 58.24189 -6.33634 374 ft 134 kts 171°
2026-04-15 08:20 58.23249 -6.33441 186 ft 135 kts 172°
2026-04-15 08:20 58.22357 -6.33260 49 ft 123 kts 172°
2026-04-15 08:21 58.21616 -6.33120 32 ft 72 kts 172°
2026-04-15 08:21 58.21451 -6.33090 32 ft 9 kts 176°
2026-04-15 08:21 58.21392 -6.33033 32 ft 11 kts 94°
2026-04-15 08:21 58.21431 -6.32895 32 ft 13 kts 59°
2026-04-15 08:22 58.21482 -6.32735 32 ft 15 kts 59°
2026-04-15 08:22 58.21524 -6.32602 32 ft 6 kts 58°
2026-04-15 08:22 58.21518 -6.32520 32 ft 8 kts 143°
2026-04-15 08:22 58.21464 -6.32455 32 ft 10 kts 152°
2026-04-15 08:23 58.21404 -6.32505 32 ft 11 kts 230°
2026-04-15 08:23 58.21331 -6.32584 32 ft 13 kts 179°
2026-04-15 08:23 58.21313 -6.32582 32 ft 1 kts 176°
2026-04-15 08:23 58.21307 -6.32581 32 ft 1 kts 175°
2026-04-15 08:24 58.21280 -6.32540 32 ft 7 kts 103°
2026-04-15 08:24 58.21309 -6.32464 32 ft 9 kts
2026-04-15 08:24 58.21378 -6.32479 32 ft 11 kts 353°
2026-04-15 08:24 58.21446 -6.32400 32 ft 13 kts 59°
2026-04-15 08:25 58.21448 -6.32276 32 ft 6 kts 141°
2026-04-15 08:25 58.21435 -6.32200 32 ft 6 kts 79°
2026-04-15 08:25 58.21436 -6.32198 32 ft 0 kts 77°